Terminal Aerodrome Forecast
Issued by NWS Sioux Falls, SD

Home | Current Version | Previous Version | Text Only | Print | Product List | Glossary Off
Versions: 1 2 3 4 5 6 7 8 9 10 11 12

000
FTUS43 KFSD 231137
TAFSUX
TAF
KSUX 231137Z 2312/2412 13008KT P6SM SCT200
     FM231400 16009KT P6SM SCT250
     FM231700 17013KT P6SM FEW040 FEW250
     FM240200 15009KT P6SM FEW035 FEW250
     FM240600 16009KT P6SM FEW250=

USA.gov is the U.S. government's official web portal to all federal, state and local government web resources and services.